sensor_id;sensor_type;location;lat;lon;timestamp;P1;durP1;ratioP1;P2;durP2;ratioP2
18360;SDS011;9308;48.550;9.108;2023-01-19T00:02:24;22.63;;;20.37;;
18360;SDS011;9308;48.550;9.108;2023-01-19T00:04:49;23.73;;;20.90;;
18360;SDS011;9308;48.550;9.108;2023-01-19T00:07:15;23.20;;;20.80;;
18360;SDS011;9308;48.550;9.108;2023-01-19T00:09:41;20.73;;;18.73;;
18360;SDS011;9308;48.550;9.108;2023-01-19T00:12:06;22.63;;;20.37;;
18360;SDS011;9308;48.550;9.108;2023-01-19T00:14:32;20.97;;;19.07;;
18360;SDS011;9308;48.550;9.108;2023-01-19T00:16:57;21.57;;;19.27;;
18360;SDS011;9308;48.550;9.108;2023-01-19T00:19:23;21.73;;;19.63;;
18360;SDS011;9308;48.550;9.108;2023-01-19T00:21:48;20.60;;;18.60;;
18360;SDS011;9308;48.550;9.108;2023-01-19T00:24:14;21.30;;;18.47;;
18360;SDS011;9308;48.550;9.108;2023-01-19T00:26:40;20.50;;;18.40;;
18360;SDS011;9308;48.550;9.108;2023-01-19T00:29:07;19.53;;;17.13;;
18360;SDS011;9308;48.550;9.108;2023-01-19T00:31:34;20.87;;;18.73;;
18360;SDS011;9308;48.550;9.108;2023-01-19T00:34:01;21.93;;;19.03;;
18360;SDS011;9308;48.550;9.108;2023-01-19T00:36:27;20.93;;;18.83;;
18360;SDS011;9308;48.550;9.108;2023-01-19T00:38:52;21.50;;;19.40;;
18360;SDS011;9308;48.550;9.108;2023-01-19T00:41:18;21.40;;;19.00;;
18360;SDS011;9308;48.550;9.108;2023-01-19T00:44:04;21.37;;;19.07;;
18360;SDS011;9308;48.550;9.108;2023-01-19T00:46:29;21.50;;;19.27;;
18360;SDS011;9308;48.550;9.108;2023-01-19T00:48:55;22.63;;;20.33;;
18360;SDS011;9308;48.550;9.108;2023-01-19T00:51:20;19.73;;;17.73;;
18360;SDS011;9308;48.550;9.108;2023-01-19T00:53:45;20.77;;;18.40;;
18360;SDS011;9308;48.550;9.108;2023-01-19T00:56:11;19.20;;;17.30;;
18360;SDS011;9308;48.550;9.108;2023-01-19T00:58:36;19.30;;;17.50;;
18360;SDS011;9308;48.550;9.108;2023-01-19T01:01:02;19.80;;;17.70;;
18360;SDS011;9308;48.550;9.108;2023-01-19T01:03:28;19.43;;;17.47;;
18360;SDS011;9308;48.550;9.108;2023-01-19T01:05:54;18.53;;;16.67;;
18360;SDS011;9308;48.550;9.108;2023-01-19T01:08:19;21.20;;;19.20;;
18360;SDS011;9308;48.550;9.108;2023-01-19T01:10:45;19.77;;;17.97;;
18360;SDS011;9308;48.550;9.108;2023-01-19T01:13:10;19.93;;;17.93;;
18360;SDS011;9308;48.550;9.108;2023-01-19T01:15:36;19.90;;;17.83;;
18360;SDS011;9308;48.550;9.108;2023-01-19T01:18:01;21.20;;;18.50;;
18360;SDS011;9308;48.550;9.108;2023-01-19T01:20:27;19.77;;;17.83;;
18360;SDS011;9308;48.550;9.108;2023-01-19T01:22:55;20.03;;;18.23;;
18360;SDS011;9308;48.550;9.108;2023-01-19T01:25:22;19.50;;;17.27;;
18360;SDS011;9308;48.550;9.108;2023-01-19T01:27:48;22.73;;;18.17;;
18360;SDS011;9308;48.550;9.108;2023-01-19T01:30:14;21.33;;;18.47;;
18360;SDS011;9308;48.550;9.108;2023-01-19T01:32:40;19.80;;;17.90;;
18360;SDS011;9308;48.550;9.108;2023-01-19T01:35:06;19.53;;;17.50;;
18360;SDS011;9308;48.550;9.108;2023-01-19T01:37:33;19.83;;;17.47;;
18360;SDS011;9308;48.550;9.108;2023-01-19T01:40:00;20.73;;;18.63;;
18360;SDS011;9308;48.550;9.108;2023-01-19T01:42:26;19.80;;;17.80;;
18360;SDS011;9308;48.550;9.108;2023-01-19T01:47:22;19.93;;;17.80;;
18360;SDS011;9308;48.550;9.108;2023-01-19T01:49:55;19.93;;;17.90;;
18360;SDS011;9308;48.550;9.108;2023-01-19T01:52:24;20.13;;;17.37;;
18360;SDS011;9308;48.550;9.108;2023-01-19T01:54:53;19.10;;;17.23;;
18360;SDS011;9308;48.550;9.108;2023-01-19T01:57:20;19.43;;;17.53;;
18360;SDS011;9308;48.550;9.108;2023-01-19T01:59:47;18.77;;;16.90;;
18360;SDS011;9308;48.550;9.108;2023-01-19T02:02:16;19.20;;;17.23;;
18360;SDS011;9308;48.550;9.108;2023-01-19T02:05:12;19.43;;;17.43;;
18360;SDS011;9308;48.550;9.108;2023-01-19T02:07:48;19.07;;;17.00;;
18360;SDS011;9308;48.550;9.108;2023-01-19T02:10:33;20.07;;;18.17;;
18360;SDS011;9308;48.550;9.108;2023-01-19T02:13:18;19.80;;;17.00;;
18360;SDS011;9308;48.550;9.108;2023-01-19T02:18:14;17.10;;;15.57;;
18360;SDS011;9308;48.550;9.108;2023-01-19T02:20:41;19.00;;;17.00;;
18360;SDS011;9308;48.550;9.108;2023-01-19T02:23:16;18.60;;;16.60;;
18360;SDS011;9308;48.550;9.108;2023-01-19T02:25:46;17.17;;;15.53;;
18360;SDS011;9308;48.550;9.108;2023-01-19T02:28:13;19.80;;;17.70;;
18360;SDS011;9308;48.550;9.108;2023-01-19T02:30:39;18.47;;;16.73;;
18360;SDS011;9308;48.550;9.108;2023-01-19T02:33:05;18.27;;;16.47;;
18360;SDS011;9308;48.550;9.108;2023-01-19T02:35:31;18.77;;;16.37;;
18360;SDS011;9308;48.550;9.108;2023-01-19T02:37:58;18.00;;;16.20;;
18360;SDS011;9308;48.550;9.108;2023-01-19T02:40:26;18.00;;;16.20;;
18360;SDS011;9308;48.550;9.108;2023-01-19T02:42:52;19.37;;;16.93;;
18360;SDS011;9308;48.550;9.108;2023-01-19T02:45:22;18.40;;;16.53;;
18360;SDS011;9308;48.550;9.108;2023-01-19T02:47:49;18.57;;;16.43;;
18360;SDS011;9308;48.550;9.108;2023-01-19T02:53:07;19.67;;;17.70;;
18360;SDS011;9308;48.550;9.108;2023-01-19T02:55:47;20.27;;;18.20;;
18360;SDS011;9308;48.550;9.108;2023-01-19T02:58:19;20.10;;;18.07;;
18360;SDS011;9308;48.550;9.108;2023-01-19T03:09:30;21.37;;;19.07;;
18360;SDS011;9308;48.550;9.108;2023-01-19T03:14:46;21.07;;;18.80;;
18360;SDS011;9308;48.550;9.108;2023-01-19T03:17:14;20.43;;;18.33;;
18360;SDS011;9308;48.550;9.108;2023-01-19T03:19:42;20.30;;;18.20;;
18360;SDS011;9308;48.550;9.108;2023-01-19T03:22:12;18.33;;;16.53;;
18360;SDS011;9308;48.550;9.108;2023-01-19T03:24:42;18.97;;;16.90;;
18360;SDS011;9308;48.550;9.108;2023-01-19T03:27:10;19.67;;;17.57;;
18360;SDS011;9308;48.550;9.108;2023-01-19T03:29:42;19.77;;;17.67;;
18360;SDS011;9308;48.550;9.108;2023-01-19T03:32:15;18.40;;;16.50;;
18360;SDS011;9308;48.550;9.108;2023-01-19T03:34:44;19.00;;;17.20;;
18360;SDS011;9308;48.550;9.108;2023-01-19T03:37:13;21.17;;;17.67;;
18360;SDS011;9308;48.550;9.108;2023-01-19T03:39:40;20.30;;;18.20;;
18360;SDS011;9308;48.550;9.108;2023-01-19T03:42:08;21.17;;;17.43;;
18360;SDS011;9308;48.550;9.108;2023-01-19T03:44:37;18.57;;;16.77;;
18360;SDS011;9308;48.550;9.108;2023-01-19T03:47:05;20.13;;;18.07;;
18360;SDS011;9308;48.550;9.108;2023-01-19T03:49:33;18.67;;;16.67;;
18360;SDS011;9308;48.550;9.108;2023-01-19T03:52:00;19.80;;;17.80;;
18360;SDS011;9308;48.550;9.108;2023-01-19T03:54:26;18.83;;;16.87;;
18360;SDS011;9308;48.550;9.108;2023-01-19T03:56:52;18.73;;;16.80;;
18360;SDS011;9308;48.550;9.108;2023-01-19T03:59:18;20.03;;;18.03;;
18360;SDS011;9308;48.550;9.108;2023-01-19T04:01:44;20.33;;;17.67;;
18360;SDS011;9308;48.550;9.108;2023-01-19T04:04:10;19.90;;;18.00;;
18360;SDS011;9308;48.550;9.108;2023-01-19T04:06:37;20.30;;;17.60;;
18360;SDS011;9308;48.550;9.108;2023-01-19T04:09:03;19.43;;;17.43;;
18360;SDS011;9308;48.550;9.108;2023-01-19T04:11:29;21.53;;;19.43;;
18360;SDS011;9308;48.550;9.108;2023-01-19T04:13:55;21.00;;;17.60;;
18360;SDS011;9308;48.550;9.108;2023-01-19T04:16:21;18.73;;;16.73;;
18360;SDS011;9308;48.550;9.108;2023-01-19T04:18:47;19.37;;;17.03;;
18360;SDS011;9308;48.550;9.108;2023-01-19T04:21:13;21.97;;;17.33;;
18360;SDS011;9308;48.550;9.108;2023-01-19T04:23:39;17.53;;;15.77;;
18360;SDS011;9308;48.550;9.108;2023-01-19T04:26:05;19.00;;;16.73;;
18360;SDS011;9308;48.550;9.108;2023-01-19T04:28:32;19.13;;;17.20;;
18360;SDS011;9308;48.550;9.108;2023-01-19T04:30:58;18.57;;;16.77;;
18360;SDS011;9308;48.550;9.108;2023-01-19T04:33:25;18.97;;;17.07;;
18360;SDS011;9308;48.550;9.108;2023-01-19T04:35:51;17.57;;;15.67;;
18360;SDS011;9308;48.550;9.108;2023-01-19T04:38:18;17.23;;;15.43;;
18360;SDS011;9308;48.550;9.108;2023-01-19T04:40:44;17.73;;;15.93;;
18360;SDS011;9308;48.550;9.108;2023-01-19T04:43:10;16.97;;;15.47;;
18360;SDS011;9308;48.550;9.108;2023-01-19T04:45:35;16.90;;;15.20;;
18360;SDS011;9308;48.550;9.108;2023-01-19T04:48:01;17.07;;;15.37;;
18360;SDS011;9308;48.550;9.108;2023-01-19T04:50:28;16.67;;;14.97;;
18360;SDS011;9308;48.550;9.108;2023-01-19T04:52:54;16.47;;;14.77;;
18360;SDS011;9308;48.550;9.108;2023-01-19T04:55:20;20.83;;;14.10;;
18360;SDS011;9308;48.550;9.108;2023-01-19T04:57:46;15.40;;;14.10;;
18360;SDS011;9308;48.550;9.108;2023-01-19T05:00:11;17.13;;;14.60;;
18360;SDS011;9308;48.550;9.108;2023-01-19T05:02:37;16.13;;;14.53;;
18360;SDS011;9308;48.550;9.108;2023-01-19T05:05:03;16.87;;;15.13;;
18360;SDS011;9308;48.550;9.108;2023-01-19T05:07:29;16.50;;;15.00;;
18360;SDS011;9308;48.550;9.108;2023-01-19T05:09:54;17.63;;;15.27;;
18360;SDS011;9308;48.550;9.108;2023-01-19T05:12:20;15.73;;;14.23;;
18360;SDS011;9308;48.550;9.108;2023-01-19T05:14:45;16.87;;;14.60;;
18360;SDS011;9308;48.550;9.108;2023-01-19T05:17:11;17.80;;;15.87;;
18360;SDS011;9308;48.550;9.108;2023-01-19T05:19:36;17.03;;;15.33;;
18360;SDS011;9308;48.550;9.108;2023-01-19T05:22:02;16.43;;;14.83;;
18360;SDS011;9308;48.550;9.108;2023-01-19T05:24:28;15.57;;;14.13;;
18360;SDS011;9308;48.550;9.108;2023-01-19T05:26:54;15.80;;;14.23;;
18360;SDS011;9308;48.550;9.108;2023-01-19T05:29:19;15.97;;;14.37;;
18360;SDS011;9308;48.550;9.108;2023-01-19T05:31:45;15.80;;;14.20;;
18360;SDS011;9308;48.550;9.108;2023-01-19T05:34:10;14.83;;;13.30;;
18360;SDS011;9308;48.550;9.108;2023-01-19T05:36:36;16.40;;;14.67;;
18360;SDS011;9308;48.550;9.108;2023-01-19T05:39:02;15.83;;;14.23;;
18360;SDS011;9308;48.550;9.108;2023-01-19T05:41:28;15.03;;;13.53;;
18360;SDS011;9308;48.550;9.108;2023-01-19T05:43:54;16.47;;;14.87;;
18360;SDS011;9308;48.550;9.108;2023-01-19T05:46:19;16.40;;;14.33;;
18360;SDS011;9308;48.550;9.108;2023-01-19T05:48:45;17.63;;;14.60;;
18360;SDS011;9308;48.550;9.108;2023-01-19T05:51:10;16.27;;;14.27;;
18360;SDS011;9308;48.550;9.108;2023-01-19T05:53:36;15.67;;;14.23;;
18360;SDS011;9308;48.550;9.108;2023-01-19T05:56:02;16.13;;;14.43;;
18360;SDS011;9308;48.550;9.108;2023-01-19T05:58:29;15.70;;;14.07;;
18360;SDS011;9308;48.550;9.108;2023-01-19T06:00:54;15.10;;;13.60;;
18360;SDS011;9308;48.550;9.108;2023-01-19T06:03:20;15.20;;;13.77;;
18360;SDS011;9308;48.550;9.108;2023-01-19T06:05:46;15.13;;;13.57;;
18360;SDS011;9308;48.550;9.108;2023-01-19T06:08:11;14.40;;;12.90;;
18360;SDS011;9308;48.550;9.108;2023-01-19T06:10:37;15.67;;;13.80;;
18360;SDS011;9308;48.550;9.108;2023-01-19T06:13:02;14.87;;;13.37;;
18360;SDS011;9308;48.550;9.108;2023-01-19T06:15:28;14.83;;;13.40;;
18360;SDS011;9308;48.550;9.108;2023-01-19T06:17:53;13.90;;;12.60;;
18360;SDS011;9308;48.550;9.108;2023-01-19T06:20:19;15.20;;;13.60;;
18360;SDS011;9308;48.550;9.108;2023-01-19T06:22:44;14.60;;;13.20;;
18360;SDS011;9308;48.550;9.108;2023-01-19T06:25:10;13.87;;;12.40;;
18360;SDS011;9308;48.550;9.108;2023-01-19T06:27:36;13.77;;;12.47;;
18360;SDS011;9308;48.550;9.108;2023-01-19T06:30:02;14.37;;;13.03;;
18360;SDS011;9308;48.550;9.108;2023-01-19T06:32:28;14.37;;;12.87;;
18360;SDS011;9308;48.550;9.108;2023-01-19T06:34:55;16.53;;;14.93;;
18360;SDS011;9308;48.550;9.108;2023-01-19T06:37:20;14.10;;;12.67;;
18360;SDS011;9308;48.550;9.108;2023-01-19T06:39:46;13.83;;;12.43;;
18360;SDS011;9308;48.550;9.108;2023-01-19T06:42:11;13.47;;;12.03;;
18360;SDS011;9308;48.550;9.108;2023-01-19T06:44:37;17.20;;;13.40;;
18360;SDS011;9308;48.550;9.108;2023-01-19T06:47:02;13.80;;;12.57;;
18360;SDS011;9308;48.550;9.108;2023-01-19T06:49:27;13.63;;;12.33;;
18360;SDS011;9308;48.550;9.108;2023-01-19T06:51:53;14.93;;;13.50;;
18360;SDS011;9308;48.550;9.108;2023-01-19T06:54:18;15.30;;;12.83;;
18360;SDS011;9308;48.550;9.108;2023-01-19T06:56:44;13.27;;;11.97;;
18360;SDS011;9308;48.550;9.108;2023-01-19T06:59:09;14.53;;;13.03;;
18360;SDS011;9308;48.550;9.108;2023-01-19T07:01:35;13.90;;;12.53;;
18360;SDS011;9308;48.550;9.108;2023-01-19T07:04:00;13.50;;;12.10;;
18360;SDS011;9308;48.550;9.108;2023-01-19T07:06:26;12.70;;;11.43;;
18360;SDS011;9308;48.550;9.108;2023-01-19T07:08:52;16.37;;;12.80;;
18360;SDS011;9308;48.550;9.108;2023-01-19T07:11:18;13.53;;;12.17;;
18360;SDS011;9308;48.550;9.108;2023-01-19T07:13:43;12.60;;;11.40;;
18360;SDS011;9308;48.550;9.108;2023-01-19T07:16:15;12.83;;;11.60;;
18360;SDS011;9308;48.550;9.108;2023-01-19T07:18:41;12.50;;;11.40;;
18360;SDS011;9308;48.550;9.108;2023-01-19T07:21:07;14.23;;;12.93;;
18360;SDS011;9308;48.550;9.108;2023-01-19T07:23:33;13.60;;;12.20;;
18360;SDS011;9308;48.550;9.108;2023-01-19T07:25:59;13.63;;;12.33;;
18360;SDS011;9308;48.550;9.108;2023-01-19T07:28:26;14.50;;;13.00;;
18360;SDS011;9308;48.550;9.108;2023-01-19T07:30:53;14.93;;;13.33;;
18360;SDS011;9308;48.550;9.108;2023-01-19T07:33:19;16.77;;;15.07;;
18360;SDS011;9308;48.550;9.108;2023-01-19T07:35:50;16.40;;;14.80;;
18360;SDS011;9308;48.550;9.108;2023-01-19T07:38:16;18.97;;;15.30;;
18360;SDS011;9308;48.550;9.108;2023-01-19T07:40:43;16.20;;;14.70;;
18360;SDS011;9308;48.550;9.108;2023-01-19T07:43:11;18.93;;;16.17;;
18360;SDS011;9308;48.550;9.108;2023-01-19T07:45:37;17.53;;;15.70;;
18360;SDS011;9308;48.550;9.108;2023-01-19T07:48:03;19.13;;;17.23;;
18360;SDS011;9308;48.550;9.108;2023-01-19T07:50:29;19.57;;;17.67;;
18360;SDS011;9308;48.550;9.108;2023-01-19T07:52:54;18.73;;;16.70;;
18360;SDS011;9308;48.550;9.108;2023-01-19T07:55:21;18.47;;;15.73;;
18360;SDS011;9308;48.550;9.108;2023-01-19T07:57:50;18.77;;;16.70;;
18360;SDS011;9308;48.550;9.108;2023-01-19T08:00:19;18.73;;;16.73;;
18360;SDS011;9308;48.550;9.108;2023-01-19T08:02:49;17.67;;;15.87;;
18360;SDS011;9308;48.550;9.108;2023-01-19T08:05:16;18.77;;;16.87;;
18360;SDS011;9308;48.550;9.108;2023-01-19T08:07:43;18.27;;;15.87;;
18360;SDS011;9308;48.550;9.108;2023-01-19T08:10:10;16.43;;;14.83;;
18360;SDS011;9308;48.550;9.108;2023-01-19T08:12:37;16.13;;;14.23;;
18360;SDS011;9308;48.550;9.108;2023-01-19T08:15:02;14.60;;;13.20;;
18360;SDS011;9308;48.550;9.108;2023-01-19T08:17:28;13.90;;;12.50;;
18360;SDS011;9308;48.550;9.108;2023-01-19T08:19:54;12.93;;;11.80;;
18360;SDS011;9308;48.550;9.108;2023-01-19T08:22:19;13.03;;;11.80;;
18360;SDS011;9308;48.550;9.108;2023-01-19T08:24:45;12.67;;;11.57;;
18360;SDS011;9308;48.550;9.108;2023-01-19T08:27:10;14.10;;;12.30;;
18360;SDS011;9308;48.550;9.108;2023-01-19T08:29:35;13.43;;;12.03;;
18360;SDS011;9308;48.550;9.108;2023-01-19T08:32:01;13.50;;;12.10;;
18360;SDS011;9308;48.550;9.108;2023-01-19T08:34:27;13.50;;;12.10;;
18360;SDS011;9308;48.550;9.108;2023-01-19T08:36:55;14.30;;;12.90;;
18360;SDS011;9308;48.550;9.108;2023-01-19T08:39:21;13.87;;;12.47;;
18360;SDS011;9308;48.550;9.108;2023-01-19T08:41:48;13.60;;;12.30;;
18360;SDS011;9308;48.550;9.108;2023-01-19T08:44:14;13.97;;;12.67;;
18360;SDS011;9308;48.550;9.108;2023-01-19T08:46:40;15.17;;;12.40;;
18360;SDS011;9308;48.550;9.108;2023-01-19T08:49:06;17.47;;;14.33;;
18360;SDS011;9308;48.550;9.108;2023-01-19T08:51:31;14.50;;;13.10;;
18360;SDS011;9308;48.550;9.108;2023-01-19T08:53:57;15.00;;;13.57;;
18360;SDS011;9308;48.550;9.108;2023-01-19T08:56:22;14.37;;;12.87;;
18360;SDS011;9308;48.550;9.108;2023-01-19T08:58:48;13.70;;;12.27;;
18360;SDS011;9308;48.550;9.108;2023-01-19T09:01:14;14.07;;;12.60;;
18360;SDS011;9308;48.550;9.108;2023-01-19T09:03:41;12.73;;;11.47;;
18360;SDS011;9308;48.550;9.108;2023-01-19T09:06:08;13.40;;;12.03;;
18360;SDS011;9308;48.550;9.108;2023-01-19T09:08:37;12.60;;;11.17;;
18360;SDS011;9308;48.550;9.108;2023-01-19T09:11:03;12.97;;;11.60;;
18360;SDS011;9308;48.550;9.108;2023-01-19T09:13:31;13.33;;;12.00;;
18360;SDS011;9308;48.550;9.108;2023-01-19T09:15:57;11.93;;;10.73;;
18360;SDS011;9308;48.550;9.108;2023-01-19T09:18:22;12.77;;;10.47;;
18360;SDS011;9308;48.550;9.108;2023-01-19T09:20:48;10.67;;;9.50;;
18360;SDS011;9308;48.550;9.108;2023-01-19T09:23:15;11.20;;;10.07;;
18360;SDS011;9308;48.550;9.108;2023-01-19T09:25:43;9.90;;;9.00;;
18360;SDS011;9308;48.550;9.108;2023-01-19T09:28:10;9.67;;;8.67;;
18360;SDS011;9308;48.550;9.108;2023-01-19T09:30:39;8.83;;;8.03;;
18360;SDS011;9308;48.550;9.108;2023-01-19T09:33:06;9.30;;;8.43;;
18360;SDS011;9308;48.550;9.108;2023-01-19T09:35:38;9.73;;;7.70;;
18360;SDS011;9308;48.550;9.108;2023-01-19T09:38:05;9.50;;;8.53;;
18360;SDS011;9308;48.550;9.108;2023-01-19T09:40:33;9.90;;;8.90;;
18360;SDS011;9308;48.550;9.108;2023-01-19T09:43:11;9.50;;;8.60;;
18360;SDS011;9308;48.550;9.108;2023-01-19T09:45:43;11.70;;;10.57;;
18360;SDS011;9308;48.550;9.108;2023-01-19T09:48:23;12.03;;;10.80;;
18360;SDS011;9308;48.550;9.108;2023-01-19T09:50:50;10.80;;;9.80;;
18360;SDS011;9308;48.550;9.108;2023-01-19T09:53:20;11.00;;;9.90;;
18360;SDS011;9308;48.550;9.108;2023-01-19T09:56:15;9.50;;;8.70;;
18360;SDS011;9308;48.550;9.108;2023-01-19T09:58:43;10.10;;;9.13;;
18360;SDS011;9308;48.550;9.108;2023-01-19T10:01:18;9.87;;;8.93;;
18360;SDS011;9308;48.550;9.108;2023-01-19T10:04:10;8.80;;;8.07;;
18360;SDS011;9308;48.550;9.108;2023-01-19T10:06:42;8.37;;;7.67;;
18360;SDS011;9308;48.550;9.108;2023-01-19T10:09:10;8.23;;;7.50;;
18360;SDS011;9308;48.550;9.108;2023-01-19T10:11:50;9.80;;;8.80;;
18360;SDS011;9308;48.550;9.108;2023-01-19T10:14:44;9.60;;;8.60;;
18360;SDS011;9308;48.550;9.108;2023-01-19T10:20:30;10.10;;;8.40;;
18360;SDS011;9308;48.550;9.108;2023-01-19T10:22:59;10.17;;;9.17;;
18360;SDS011;9308;48.550;9.108;2023-01-19T10:25:27;8.87;;;8.07;;
18360;SDS011;9308;48.550;9.108;2023-01-19T10:27:53;8.50;;;7.70;;
18360;SDS011;9308;48.550;9.108;2023-01-19T10:30:20;8.60;;;7.80;;
18360;SDS011;9308;48.550;9.108;2023-01-19T10:32:48;7.73;;;7.03;;
18360;SDS011;9308;48.550;9.108;2023-01-19T10:35:18;8.60;;;7.43;;
18360;SDS011;9308;48.550;9.108;2023-01-19T10:37:49;9.00;;;7.37;;
18360;SDS011;9308;48.550;9.108;2023-01-19T10:42:47;11.63;;;7.97;;
18360;SDS011;9308;48.550;9.108;2023-01-19T10:45:16;7.70;;;7.10;;
18360;SDS011;9308;48.550;9.108;2023-01-19T10:47:43;7.53;;;6.83;;
18360;SDS011;9308;48.550;9.108;2023-01-19T10:50:22;8.30;;;7.60;;
18360;SDS011;9308;48.550;9.108;2023-01-19T10:52:51;7.73;;;7.03;;
18360;SDS011;9308;48.550;9.108;2023-01-19T10:55:25;9.10;;;7.77;;
18360;SDS011;9308;48.550;9.108;2023-01-19T10:57:53;9.50;;;8.60;;
18360;SDS011;9308;48.550;9.108;2023-01-19T11:00:35;8.30;;;7.60;;
18360;SDS011;9308;48.550;9.108;2023-01-19T11:03:02;8.27;;;7.47;;
18360;SDS011;9308;48.550;9.108;2023-01-19T11:05:48;7.27;;;6.67;;
18360;SDS011;9308;48.550;9.108;2023-01-19T11:08:21;10.30;;;7.87;;
18360;SDS011;9308;48.550;9.108;2023-01-19T11:11:00;8.57;;;7.33;;
18360;SDS011;9308;48.550;9.108;2023-01-19T11:13:28;8.07;;;7.37;;
18360;SDS011;9308;48.550;9.108;2023-01-19T11:15:56;9.40;;;6.60;;
18360;SDS011;9308;48.550;9.108;2023-01-19T11:18:30;8.67;;;7.77;;
18360;SDS011;9308;48.550;9.108;2023-01-19T11:20:59;6.80;;;6.30;;
18360;SDS011;9308;48.550;9.108;2023-01-19T11:23:28;8.03;;;7.33;;
18360;SDS011;9308;48.550;9.108;2023-01-19T11:25:58;7.80;;;7.00;;
18360;SDS011;9308;48.550;9.108;2023-01-19T11:28:30;7.70;;;6.97;;
18360;SDS011;9308;48.550;9.108;2023-01-19T11:30:59;7.63;;;6.93;;
18360;SDS011;9308;48.550;9.108;2023-01-19T11:33:51;7.37;;;6.73;;
18360;SDS011;9308;48.550;9.108;2023-01-19T11:38:47;6.80;;;6.20;;
18360;SDS011;9308;48.550;9.108;2023-01-19T11:41:30;7.07;;;6.57;;
18360;SDS011;9308;48.550;9.108;2023-01-19T11:47:03;7.00;;;6.30;;
18360;SDS011;9308;48.550;9.108;2023-01-19T11:49:41;8.70;;;7.10;;
18360;SDS011;9308;48.550;9.108;2023-01-19T11:52:14;11.60;;;6.93;;
18360;SDS011;9308;48.550;9.108;2023-01-19T11:54:50;12.00;;;10.90;;
18360;SDS011;9308;48.550;9.108;2023-01-19T11:57:20;8.47;;;7.67;;
18360;SDS011;9308;48.550;9.108;2023-01-19T11:59:46;8.27;;;7.47;;
18360;SDS011;9308;48.550;9.108;2023-01-19T12:02:23;9.13;;;8.23;;
18360;SDS011;9308;48.550;9.108;2023-01-19T12:04:53;7.87;;;7.17;;
18360;SDS011;9308;48.550;9.108;2023-01-19T12:07:25;8.30;;;7.50;;
18360;SDS011;9308;48.550;9.108;2023-01-19T12:10:05;8.63;;;7.83;;
18360;SDS011;9308;48.550;9.108;2023-01-19T12:12:52;8.50;;;7.60;;
18360;SDS011;9308;48.550;9.108;2023-01-19T12:18:09;8.37;;;7.57;;
18360;SDS011;9308;48.550;9.108;2023-01-19T12:20:51;7.60;;;6.90;;
18360;SDS011;9308;48.550;9.108;2023-01-19T12:23:24;7.53;;;7.03;;
18360;SDS011;9308;48.550;9.108;2023-01-19T12:28:41;7.50;;;6.80;;
18360;SDS011;9308;48.550;9.108;2023-01-19T12:31:09;9.73;;;8.73;;
18360;SDS011;9308;48.550;9.108;2023-01-19T12:33:40;8.83;;;8.13;;
18360;SDS011;9308;48.550;9.108;2023-01-19T12:41:46;8.37;;;7.60;;
18360;SDS011;9308;48.550;9.108;2023-01-19T12:44:14;8.30;;;7.50;;
18360;SDS011;9308;48.550;9.108;2023-01-19T12:46:52;9.23;;;8.33;;
18360;SDS011;9308;48.550;9.108;2023-01-19T12:57:34;8.10;;;7.30;;
18360;SDS011;9308;48.550;9.108;2023-01-19T13:02:49;8.93;;;8.13;;
18360;SDS011;9308;48.550;9.108;2023-01-19T13:13:38;8.20;;;7.40;;
18360;SDS011;9308;48.550;9.108;2023-01-19T13:18:44;7.87;;;7.17;;
18360;SDS011;9308;48.550;9.108;2023-01-19T13:22:47;10.33;;;9.40;;
18360;SDS011;9308;48.550;9.108;2023-01-19T13:24:10;7.00;;;6.40;;
18360;SDS011;9308;48.550;9.108;2023-01-19T13:29:17;7.33;;;6.40;;
18360;SDS011;9308;48.550;9.108;2023-01-19T13:31:54;7.97;;;7.17;;
18360;SDS011;9308;48.550;9.108;2023-01-19T13:34:26;7.43;;;6.83;;
18360;SDS011;9308;48.550;9.108;2023-01-19T13:37:03;9.30;;;6.90;;
18360;SDS011;9308;48.550;9.108;2023-01-19T13:39:33;8.33;;;7.20;;
18360;SDS011;9308;48.550;9.108;2023-01-19T13:42:03;8.40;;;7.70;;
18360;SDS011;9308;48.550;9.108;2023-01-19T13:44:36;7.77;;;6.97;;
18360;SDS011;9308;48.550;9.108;2023-01-19T13:47:10;7.67;;;7.07;;
18360;SDS011;9308;48.550;9.108;2023-01-19T13:49:43;7.43;;;6.70;;
18360;SDS011;9308;48.550;9.108;2023-01-19T13:52:18;9.10;;;6.80;;
18360;SDS011;9308;48.550;9.108;2023-01-19T13:54:56;8.03;;;7.33;;
18360;SDS011;9308;48.550;9.108;2023-01-19T13:57:26;8.90;;;6.60;;
18360;SDS011;9308;48.550;9.108;2023-01-19T14:05:29;7.27;;;6.67;;
18360;SDS011;9308;48.550;9.108;2023-01-19T14:08:04;6.90;;;6.20;;
18360;SDS011;9308;48.550;9.108;2023-01-19T14:10:37;7.90;;;7.20;;
18360;SDS011;9308;48.550;9.108;2023-01-19T14:15:46;6.53;;;5.97;;
18360;SDS011;9308;48.550;9.108;2023-01-19T14:20:38;7.70;;;7.00;;
18360;SDS011;9308;48.550;9.108;2023-01-19T14:23:05;7.60;;;6.87;;
18360;SDS011;9308;48.550;9.108;2023-01-19T14:25:50;14.50;;;8.83;;
18360;SDS011;9308;48.550;9.108;2023-01-19T14:28:31;7.30;;;6.60;;
18360;SDS011;9308;48.550;9.108;2023-01-19T14:31:19;8.67;;;7.87;;
18360;SDS011;9308;48.550;9.108;2023-01-19T14:33:52;8.07;;;7.37;;
18360;SDS011;9308;48.550;9.108;2023-01-19T14:39:16;8.77;;;7.90;;
18360;SDS011;9308;48.550;9.108;2023-01-19T14:41:46;8.40;;;7.70;;
18360;SDS011;9308;48.550;9.108;2023-01-19T14:44:25;8.87;;;8.00;;
18360;SDS011;9308;48.550;9.108;2023-01-19T14:46:54;10.77;;;9.77;;
18360;SDS011;9308;48.550;9.108;2023-01-19T14:49:24;8.67;;;7.80;;
18360;SDS011;9308;48.550;9.108;2023-01-19T14:51:54;11.23;;;8.53;;
18360;SDS011;9308;48.550;9.108;2023-01-19T14:54:22;8.30;;;7.63;;
18360;SDS011;9308;48.550;9.108;2023-01-19T14:56:54;8.67;;;7.77;;
18360;SDS011;9308;48.550;9.108;2023-01-19T14:59:20;8.17;;;7.37;;
18360;SDS011;9308;48.550;9.108;2023-01-19T15:01:45;10.47;;;9.47;;
18360;SDS011;9308;48.550;9.108;2023-01-19T15:04:11;8.63;;;7.30;;
18360;SDS011;9308;48.550;9.108;2023-01-19T15:06:39;12.37;;;9.03;;
18360;SDS011;9308;48.550;9.108;2023-01-19T15:09:11;7.83;;;7.20;;
18360;SDS011;9308;48.550;9.108;2023-01-19T15:11:37;8.57;;;7.77;;
18360;SDS011;9308;48.550;9.108;2023-01-19T15:14:04;11.20;;;8.37;;
18360;SDS011;9308;48.550;9.108;2023-01-19T15:16:30;7.70;;;7.00;;
18360;SDS011;9308;48.550;9.108;2023-01-19T15:18:58;6.80;;;6.13;;
18360;SDS011;9308;48.550;9.108;2023-01-19T15:21:24;6.97;;;6.23;;
18360;SDS011;9308;48.550;9.108;2023-01-19T15:23:51;6.50;;;5.80;;
18360;SDS011;9308;48.550;9.108;2023-01-19T15:26:20;7.23;;;6.60;;
18360;SDS011;9308;48.550;9.108;2023-01-19T15:28:47;7.50;;;6.60;;
18360;SDS011;9308;48.550;9.108;2023-01-19T15:31:22;6.87;;;6.17;;
18360;SDS011;9308;48.550;9.108;2023-01-19T15:33:49;6.20;;;5.60;;
18360;SDS011;9308;48.550;9.108;2023-01-19T15:36:16;6.10;;;5.50;;
18360;SDS011;9308;48.550;9.108;2023-01-19T15:38:43;6.40;;;5.60;;
18360;SDS011;9308;48.550;9.108;2023-01-19T15:43:37;7.13;;;6.57;;
18360;SDS011;9308;48.550;9.108;2023-01-19T15:46:03;7.33;;;6.70;;
18360;SDS011;9308;48.550;9.108;2023-01-19T15:48:30;6.27;;;5.73;;
18360;SDS011;9308;48.550;9.108;2023-01-19T15:50:56;6.97;;;6.23;;
18360;SDS011;9308;48.550;9.108;2023-01-19T15:53:22;7.90;;;7.13;;
18360;SDS011;9308;48.550;9.108;2023-01-19T15:55:49;8.00;;;7.20;;
18360;SDS011;9308;48.550;9.108;2023-01-19T15:58:17;8.10;;;7.13;;
18360;SDS011;9308;48.550;9.108;2023-01-19T16:00:44;7.27;;;6.67;;
18360;SDS011;9308;48.550;9.108;2023-01-19T16:03:17;7.33;;;6.63;;
18360;SDS011;9308;48.550;9.108;2023-01-19T16:05:42;8.17;;;7.47;;
18360;SDS011;9308;48.550;9.108;2023-01-19T16:08:09;8.43;;;7.63;;
18360;SDS011;9308;48.550;9.108;2023-01-19T16:10:35;8.53;;;7.70;;
18360;SDS011;9308;48.550;9.108;2023-01-19T16:13:10;11.43;;;9.83;;
18360;SDS011;9308;48.550;9.108;2023-01-19T16:15:37;11.40;;;10.40;;